In Rescue
 
Open Full Screen Window  High Contrast Mode
Wind Gusting 18 knots
09
February 25, 2021 3:42 PM CST
Weather Information
Wind Direction
  230 °
Wind Speed
  09 kt (10 mph)
Wind Gust
  18 kt (21 mph)
Altimeter
30.06 in
Visibility
10 SM
Temperature
02° C
36° F
Dewpoint
-08° C
18° F
Humidity
48%
1hr Rain Fall
00.00 in.
24hr Rain Fall
00.00 in.
Sky Condition
Broken @ 6,000 ft
Scattered @ 4,900 ft
VFR

METAR KTWM 252142Z AUTO 23009G18KT 10SM SCT049 BKN060 02/M08 A3006 RMK AO2

FAA Disclaimer: The data displayed is for advisory purposes only and is not to be used for flight planning or operations.